createdAt,value
2022-11-18T00:00:21.143Z,14.50
2022-11-18T00:08:26.572Z,11.75
2022-11-18T00:12:47.000Z,12.55
2022-11-18T00:17:03.442Z,7.38
2022-11-18T00:21:10.745Z,12.20
2022-11-18T00:25:12.790Z,13.82
2022-11-18T00:29:15.462Z,8.57
2022-11-18T00:33:17.790Z,12.77
2022-11-18T00:37:19.825Z,11.07
2022-11-18T00:45:24.053Z,10.40
2022-11-18T00:49:26.144Z,9.73
2022-11-18T00:53:28.185Z,7.43
2022-11-18T00:57:30.148Z,6.43
2022-11-18T01:01:32.335Z,10.65
2022-11-18T01:05:34.425Z,7.47
2022-11-18T01:09:36.385Z,12.82
2022-11-18T01:13:38.358Z,9.77
2022-11-18T01:17:40.333Z,8.27
2022-11-18T01:21:42.285Z,10.40
2022-11-18T01:25:45.676Z,10.50
2022-11-18T01:29:47.710Z,11.52
2022-11-18T01:33:49.843Z,6.72
2022-11-18T01:41:53.785Z,10.47
2022-11-18T01:45:55.762Z,8.27
2022-11-18T01:50:00.130Z,8.15
2022-11-18T01:54:25.485Z,11.48
2022-11-18T01:58:55.993Z,8.93
2022-11-18T02:02:59.442Z,13.48
2022-11-18T02:07:02.853Z,10.60
2022-11-18T02:11:05.770Z,9.05
2022-11-18T02:15:08.425Z,7.47
2022-11-18T02:19:22.587Z,11.90
2022-11-18T02:23:50.991Z,12.50
2022-11-18T02:28:05.161Z,7.05
2022-11-18T02:32:47.049Z,11.02
2022-11-18T02:36:59.465Z,7.22
2022-11-18T02:45:31.846Z,10.65
2022-11-18T02:49:39.735Z,15.55
2022-11-18T02:53:43.525Z,7.45
2022-11-18T02:57:46.388Z,7.53
2022-11-18T03:01:48.630Z,5.60
2022-11-18T03:05:54.623Z,8.98
2022-11-18T03:09:58.566Z,9.80
2022-11-18T03:14:03.362Z,7.05
2022-11-18T03:18:28.226Z,8.88
2022-11-18T03:22:37.431Z,6.35
2022-11-18T03:26:44.021Z,10.27
2022-11-18T03:31:14.770Z,7.47
2022-11-18T03:35:22.321Z,8.40
2022-11-18T03:39:26.780Z,7.88
2022-11-18T03:43:36.594Z,11.57
2022-11-18T03:47:42.837Z,9.80
2022-11-18T03:51:53.941Z,10.13
2022-11-18T03:56:07.090Z,7.82
2022-11-18T04:00:11.283Z,12.73
2022-11-18T04:04:13.697Z,8.93
2022-11-18T04:08:24.632Z,9.50
2022-11-18T04:12:29.817Z,9.63
2022-11-18T04:16:38.058Z,10.68
2022-11-18T04:20:40.425Z,6.55
2022-11-18T04:24:42.494Z,8.75
2022-11-18T04:28:44.501Z,8.18
2022-11-18T04:32:46.732Z,10.35
2022-11-18T04:40:50.687Z,8.43
2022-11-18T04:44:52.651Z,9.77
2022-11-18T04:48:54.688Z,7.20
2022-11-18T04:52:56.831Z,6.07
2022-11-18T05:01:00.788Z,11.23
2022-11-18T05:09:05.514Z,6.63
2022-11-18T05:13:07.535Z,7.05
2022-11-18T05:17:10.187Z,10.07
2022-11-18T05:21:12.252Z,6.50
2022-11-18T05:25:14.249Z,6.93
2022-11-18T05:29:18.210Z,8.75
2022-11-18T05:33:20.337Z,5.70
2022-11-18T05:37:22.353Z,4.82
2022-11-18T05:41:42.838Z,5.10
2022-11-18T05:45:44.828Z,5.18
2022-11-18T05:49:46.822Z,5.88
2022-11-18T05:53:50.599Z,5.88
2022-11-18T05:57:52.676Z,9.15
2022-11-18T06:06:02.618Z,5.80
2022-11-18T06:10:06.174Z,5.55
2022-11-18T06:14:25.345Z,6.15
2022-11-18T06:18:31.423Z,7.60
2022-11-18T06:22:35.152Z,6.80
2022-11-18T06:26:38.394Z,5.55
2022-11-18T06:30:40.718Z,4.97
2022-11-18T06:34:42.715Z,4.55
2022-11-18T06:38:44.779Z,4.60
2022-11-18T06:43:05.529Z,5.32
2022-11-18T06:47:07.483Z,4.63
2022-11-18T06:51:09.518Z,4.57
2022-11-18T06:55:11.485Z,4.18
2022-11-18T06:59:13.785Z,2.85
2022-11-18T07:03:15.745Z,4.15
2022-11-18T07:07:17.768Z,7.72
2022-11-18T07:11:22.935Z,8.02
2022-11-18T07:15:24.926Z,4.95
2022-11-18T07:19:30.202Z,4.65
2022-11-18T07:23:36.623Z,3.63
2022-11-18T07:31:40.964Z,3.80
2022-11-18T07:35:43.155Z,2.42
2022-11-18T07:43:48.235Z,5.90
2022-11-18T07:47:50.422Z,5.00
2022-11-18T07:55:54.870Z,7.85
2022-11-18T07:59:56.835Z,12.95
2022-11-18T08:04:05.674Z,3.47
2022-11-18T08:08:07.684Z,8.77
2022-11-18T08:12:09.696Z,6.55
2022-11-18T08:16:23.562Z,9.02
2022-11-18T08:20:27.314Z,7.07
2022-11-18T08:24:29.542Z,5.90
2022-11-18T08:32:33.970Z,4.88
2022-11-18T08:36:37.854Z,4.88
2022-11-18T08:40:44.340Z,5.65
2022-11-18T08:44:46.908Z,11.27
2022-11-18T08:48:49.148Z,8.20
2022-11-18T08:56:52.953Z,3.70
2022-11-18T09:00:55.244Z,3.72
2022-11-18T09:04:57.218Z,9.48
2022-11-18T09:09:03.471Z,5.18
2022-11-18T09:13:33.728Z,3.03
2022-11-18T09:17:30.322Z,2.15
2022-11-18T09:21:34.619Z,5.32
2022-11-18T09:25:40.090Z,4.20
2022-11-18T09:29:42.075Z,2.40
2022-11-18T09:33:44.462Z,2.55
2022-11-18T09:37:46.444Z,5.00
2022-11-18T09:42:00.661Z,2.47
2022-11-18T09:46:21.586Z,5.10
2022-11-18T09:54:46.229Z,2.67
2022-11-18T09:58:48.565Z,6.05
2022-11-18T10:03:06.429Z,4.55
2022-11-18T10:07:19.965Z,6.07
2022-11-18T10:11:25.125Z,3.90
2022-11-18T10:15:39.762Z,3.20
2022-11-18T10:19:53.163Z,3.13
2022-11-18T10:24:17.922Z,2.50
2022-11-18T10:28:24.767Z,3.55
2022-11-18T10:32:27.054Z,2.50
2022-11-18T10:36:38.001Z,2.88
2022-11-18T10:41:01.502Z,2.58
2022-11-18T10:45:21.877Z,3.78
2022-11-18T10:49:23.840Z,5.70
2022-11-18T10:53:36.032Z,4.90
2022-11-18T10:57:43.562Z,3.42
2022-11-18T11:02:18.381Z,2.28
2022-11-18T11:06:26.513Z,6.68
2022-11-18T11:10:28.673Z,6.53
2022-11-18T11:18:42.775Z,3.58
2022-11-18T11:22:45.809Z,3.60
2022-11-18T11:31:28.275Z,2.45
2022-11-18T11:36:08.192Z,3.92
2022-11-18T11:40:29.385Z,4.60
2022-11-18T11:44:55.461Z,2.53
2022-11-18T11:49:00.166Z,3.55
2022-11-18T11:53:14.952Z,2.30
2022-11-18T11:57:39.616Z,4.13
2022-11-18T12:01:58.767Z,3.83
2022-11-18T12:06:00.774Z,2.78
2022-11-18T12:10:18.077Z,3.50
2022-11-18T12:14:39.693Z,2.55
2022-11-18T12:18:41.999Z,5.70
2022-11-18T12:23:09.077Z,3.95
2022-11-18T12:27:11.125Z,3.75
2022-11-18T12:35:30.484Z,2.85
2022-11-18T12:39:48.350Z,4.03
2022-11-18T12:43:50.945Z,4.15
2022-11-18T12:47:52.853Z,5.75
2022-11-18T12:52:00.177Z,7.18
2022-11-18T12:56:24.405Z,3.05
2022-11-18T13:00:26.547Z,2.67
2022-11-18T13:08:30.707Z,1.40
2022-11-18T13:17:05.485Z,3.72
2022-11-18T13:25:30.948Z,3.80
2022-11-18T13:29:38.025Z,3.55
2022-11-18T13:33:40.377Z,2.72
2022-11-18T13:37:54.733Z,4.15
